sensor_id;sensor_type;location;lat;lon;timestamp;P1;durP1;ratioP1;P2;durP2;ratioP2
55350;SDS011;62194;49.480;10.986;2024-01-27T00:00:01;6.47;;;2.20;;
55350;SDS011;62194;49.480;10.986;2024-01-27T00:00:07;6.57;;;2.20;;
55350;SDS011;62194;49.480;10.986;2024-01-27T00:00:13;6.56;;;2.10;;
55350;SDS011;62194;49.480;10.986;2024-01-27T00:00:19;5.65;;;2.20;;
55350;SDS011;62194;49.480;10.986;2024-01-27T00:00:24;5.47;;;2.20;;
55350;SDS011;62194;49.480;10.986;2024-01-27T00:00:30;6.25;;;2.20;;
55350;SDS011;62194;49.480;10.986;2024-01-27T00:00:35;6.30;;;2.13;;
55350;SDS011;62194;49.480;10.986;2024-01-27T00:00:40;6.67;;;2.13;;
55350;SDS011;62194;49.480;10.986;2024-01-27T00:00:45;7.23;;;2.50;;
55350;SDS011;62194;49.480;10.986;2024-01-27T00:00:51;7.80;;;2.55;;
55350;SDS011;62194;49.480;10.986;2024-01-27T00:00:56;7.23;;;2.50;;
55350;SDS011;62194;49.480;10.986;2024-01-27T00:01:01;6.77;;;2.50;;
55350;SDS011;62194;49.480;10.986;2024-01-27T00:01:07;7.95;;;2.65;;
55350;SDS011;62194;49.480;10.986;2024-01-27T00:01:12;8.07;;;2.40;;
55350;SDS011;62194;49.480;10.986;2024-01-27T00:01:17;7.60;;;2.13;;
55350;SDS011;62194;49.480;10.986;2024-01-27T00:01:23;7.47;;;2.00;;
55350;SDS011;62194;49.480;10.986;2024-01-27T00:01:28;7.27;;;1.93;;
55350;SDS011;62194;49.480;10.986;2024-01-27T00:01:33;7.03;;;2.00;;
55350;SDS011;62194;49.480;10.986;2024-01-27T00:01:38;5.65;;;1.98;;
55350;SDS011;62194;49.480;10.986;2024-01-27T00:01:44;5.33;;;2.10;;
55350;SDS011;62194;49.480;10.986;2024-01-27T00:01:49;4.97;;;2.10;;
55350;SDS011;62194;49.480;10.986;2024-01-27T00:01:54;4.97;;;2.20;;
55350;SDS011;62194;49.480;10.986;2024-01-27T00:02:00;6.10;;;2.33;;
55350;SDS011;62194;49.480;10.986;2024-01-27T00:02:06;6.30;;;2.40;;
55350;SDS011;62194;49.480;10.986;2024-01-27T00:02:11;7.20;;;2.57;;
55350;SDS011;62194;49.480;10.986;2024-01-27T00:02:16;7.45;;;2.70;;
55350;SDS011;62194;49.480;10.986;2024-01-27T00:02:22;7.67;;;2.70;;
55350;SDS011;62194;49.480;10.986;2024-01-27T00:02:27;7.00;;;2.70;;
55350;SDS011;62194;49.480;10.986;2024-01-27T00:02:32;6.77;;;2.57;;
55350;SDS011;62194;49.480;10.986;2024-01-27T00:02:37;6.47;;;2.35;;
55350;SDS011;62194;49.480;10.986;2024-01-27T00:02:43;6.40;;;2.10;;
55350;SDS011;62194;49.480;10.986;2024-01-27T00:02:48;6.50;;;2.10;;
55350;SDS011;62194;49.480;10.986;2024-01-27T00:02:54;6.57;;;2.10;;
55350;SDS011;62194;49.480;10.986;2024-01-27T00:02:59;7.30;;;2.03;;
55350;SDS011;62194;49.480;10.986;2024-01-27T00:03:04;6.90;;;2.00;;
55350;SDS011;62194;49.480;10.986;2024-01-27T00:03:10;6.27;;;2.00;;
55350;SDS011;62194;49.480;10.986;2024-01-27T00:03:15;7.07;;;2.17;;
55350;SDS011;62194;49.480;10.986;2024-01-27T00:03:20;7.03;;;2.17;;
55350;SDS011;62194;49.480;10.986;2024-01-27T00:03:25;6.07;;;2.27;;
55350;SDS011;62194;49.480;10.986;2024-01-27T00:03:31;5.57;;;2.27;;
55350;SDS011;62194;49.480;10.986;2024-01-27T00:03:36;4.97;;;2.15;;
55350;SDS011;62194;49.480;10.986;2024-01-27T00:03:41;4.73;;;2.20;;
55350;SDS011;62194;49.480;10.986;2024-01-27T00:03:47;4.93;;;2.10;;
55350;SDS011;62194;49.480;10.986;2024-01-27T00:03:52;4.65;;;2.00;;
55350;SDS011;62194;49.480;10.986;2024-01-27T00:03:59;4.72;;;2.03;;
55350;SDS011;62194;49.480;10.986;2024-01-27T00:04:04;6.05;;;2.15;;
55350;SDS011;62194;49.480;10.986;2024-01-27T00:04:09;7.73;;;2.23;;
55350;SDS011;62194;49.480;10.986;2024-01-27T00:04:15;7.07;;;2.10;;
55350;SDS011;62194;49.480;10.986;2024-01-27T00:04:20;6.63;;;2.25;;
55350;SDS011;62194;49.480;10.986;2024-01-27T00:04:25;7.13;;;2.30;;
55350;SDS011;62194;49.480;10.986;2024-01-27T00:04:31;6.93;;;2.20;;
55350;SDS011;62194;49.480;10.986;2024-01-27T00:04:36;5.73;;;2.20;;
55350;SDS011;62194;49.480;10.986;2024-01-27T00:04:44;5.93;;;2.26;;
55350;SDS011;62194;49.480;10.986;2024-01-27T00:04:49;6.00;;;2.20;;
55350;SDS011;62194;49.480;10.986;2024-01-27T00:04:55;6.23;;;2.33;;
55350;SDS011;62194;49.480;10.986;2024-01-27T00:05:00;6.80;;;2.40;;
55350;SDS011;62194;49.480;10.986;2024-01-27T00:05:05;7.23;;;2.40;;
55350;SDS011;62194;49.480;10.986;2024-01-27T00:05:11;6.13;;;2.40;;
55350;SDS011;62194;49.480;10.986;2024-01-27T00:05:16;6.37;;;2.53;;
55350;SDS011;62194;49.480;10.986;2024-01-27T00:05:22;6.53;;;2.33;;
55350;SDS011;62194;49.480;10.986;2024-01-27T00:05:27;6.10;;;2.13;;
55350;SDS011;62194;49.480;10.986;2024-01-27T00:05:33;6.27;;;2.20;;
55350;SDS011;62194;49.480;10.986;2024-01-27T00:05:38;6.13;;;2.17;;
55350;SDS011;62194;49.480;10.986;2024-01-27T00:05:43;6.87;;;2.20;;
55350;SDS011;62194;49.480;10.986;2024-01-27T00:05:48;6.60;;;2.10;;
55350;SDS011;62194;49.480;10.986;2024-01-27T00:05:54;6.67;;;2.20;;
55350;SDS011;62194;49.480;10.986;2024-01-27T00:05:59;6.10;;;2.17;;
55350;SDS011;62194;49.480;10.986;2024-01-27T00:06:04;6.83;;;2.20;;
55350;SDS011;62194;49.480;10.986;2024-01-27T00:06:10;6.60;;;2.20;;
55350;SDS011;62194;49.480;10.986;2024-01-27T00:06:15;5.45;;;2.05;;
55350;SDS011;62194;49.480;10.986;2024-01-27T00:06:21;5.53;;;2.20;;
55350;SDS011;62194;49.480;10.986;2024-01-27T00:06:26;6.20;;;2.30;;
55350;SDS011;62194;49.480;10.986;2024-01-27T00:06:32;5.30;;;2.28;;
55350;SDS011;62194;49.480;10.986;2024-01-27T00:06:37;5.07;;;2.37;;
55350;SDS011;62194;49.480;10.986;2024-01-27T00:06:42;6.10;;;2.43;;
55350;SDS011;62194;49.480;10.986;2024-01-27T00:06:48;6.40;;;2.40;;
55350;SDS011;62194;49.480;10.986;2024-01-27T00:06:53;7.43;;;2.33;;
55350;SDS011;62194;49.480;10.986;2024-01-27T00:06:58;7.03;;;2.20;;
55350;SDS011;62194;49.480;10.986;2024-01-27T00:07:04;7.15;;;2.10;;
55350;SDS011;62194;49.480;10.986;2024-01-27T00:07:09;8.03;;;2.00;;
55350;SDS011;62194;49.480;10.986;2024-01-27T00:07:14;8.00;;;2.00;;
55350;SDS011;62194;49.480;10.986;2024-01-27T00:07:19;8.33;;;2.00;;
55350;SDS011;62194;49.480;10.986;2024-01-27T00:07:25;7.53;;;2.00;;
55350;SDS011;62194;49.480;10.986;2024-01-27T00:07:32;8.04;;;2.22;;
55350;SDS011;62194;49.480;10.986;2024-01-27T00:07:37;6.87;;;2.30;;
55350;SDS011;62194;49.480;10.986;2024-01-27T00:07:42;7.63;;;2.47;;
55350;SDS011;62194;49.480;10.986;2024-01-27T00:07:47;6.80;;;2.42;;
55350;SDS011;62194;49.480;10.986;2024-01-27T00:07:53;7.57;;;2.50;;
55350;SDS011;62194;49.480;10.986;2024-01-27T00:07:58;8.53;;;2.47;;
55350;SDS011;62194;49.480;10.986;2024-01-27T00:08:03;8.47;;;2.30;;
55350;SDS011;62194;49.480;10.986;2024-01-27T00:08:09;7.95;;;2.28;;
55350;SDS011;62194;49.480;10.986;2024-01-27T00:08:14;7.03;;;2.07;;
55350;SDS011;62194;49.480;10.986;2024-01-27T00:08:19;6.97;;;2.10;;
55350;SDS011;62194;49.480;10.986;2024-01-27T00:08:26;5.37;;;2.03;;
55350;SDS011;62194;49.480;10.986;2024-01-27T00:08:31;5.10;;;2.13;;
55350;SDS011;62194;49.480;10.986;2024-01-27T00:08:36;5.20;;;2.20;;
55350;SDS011;62194;49.480;10.986;2024-01-27T00:08:42;5.63;;;2.30;;
55350;SDS011;62194;49.480;10.986;2024-01-27T00:08:47;6.90;;;2.40;;
55350;SDS011;62194;49.480;10.986;2024-01-27T00:08:52;6.63;;;2.53;;
55350;SDS011;62194;49.480;10.986;2024-01-27T00:08:58;6.78;;;2.53;;
55350;SDS011;62194;49.480;10.986;2024-01-27T00:09:03;6.67;;;2.47;;
55350;SDS011;62194;49.480;10.986;2024-01-27T00:09:10;6.77;;;2.48;;
55350;SDS011;62194;49.480;10.986;2024-01-27T00:09:16;5.30;;;2.40;;
55350;SDS011;62194;49.480;10.986;2024-01-27T00:09:21;5.57;;;2.43;;
55350;SDS011;62194;49.480;10.986;2024-01-27T00:09:26;5.57;;;2.25;;
55350;SDS011;62194;49.480;10.986;2024-01-27T00:09:31;5.77;;;2.27;;
55350;SDS011;62194;49.480;10.986;2024-01-27T00:09:37;5.53;;;2.20;;
55350;SDS011;62194;49.480;10.986;2024-01-27T00:09:42;5.80;;;2.20;;
55350;SDS011;62194;49.480;10.986;2024-01-27T00:09:48;6.35;;;2.28;;
55350;SDS011;62194;49.480;10.986;2024-01-27T00:09:53;5.83;;;2.30;;
55350;SDS011;62194;49.480;10.986;2024-01-27T00:09:59;5.80;;;2.40;;
55350;SDS011;62194;49.480;10.986;2024-01-27T00:10:05;5.95;;;2.40;;
55350;SDS011;62194;49.480;10.986;2024-01-27T00:10:11;5.80;;;2.53;;
55350;SDS011;62194;49.480;10.986;2024-01-27T00:10:16;6.47;;;2.57;;
55350;SDS011;62194;49.480;10.986;2024-01-27T00:10:21;6.70;;;2.40;;
55350;SDS011;62194;49.480;10.986;2024-01-27T00:10:26;7.33;;;2.40;;
55350;SDS011;62194;49.480;10.986;2024-01-27T00:10:32;7.53;;;2.43;;
55350;SDS011;62194;49.480;10.986;2024-01-27T00:10:37;7.63;;;2.30;;
55350;SDS011;62194;49.480;10.986;2024-01-27T00:10:42;7.80;;;2.33;;
55350;SDS011;62194;49.480;10.986;2024-01-27T00:10:50;6.53;;;2.22;;
55350;SDS011;62194;49.480;10.986;2024-01-27T00:10:56;7.43;;;2.20;;
55350;SDS011;62194;49.480;10.986;2024-01-27T00:11:01;7.72;;;2.20;;
55350;SDS011;62194;49.480;10.986;2024-01-27T00:11:06;7.30;;;2.23;;
55350;SDS011;62194;49.480;10.986;2024-01-27T00:11:12;7.37;;;2.13;;
55350;SDS011;62194;49.480;10.986;2024-01-27T00:11:17;7.57;;;2.07;;
55350;SDS011;62194;49.480;10.986;2024-01-27T00:11:22;6.65;;;2.03;;
55350;SDS011;62194;49.480;10.986;2024-01-27T00:11:29;5.84;;;2.04;;
55350;SDS011;62194;49.480;10.986;2024-01-27T00:11:34;5.93;;;2.20;;
55350;SDS011;62194;49.480;10.986;2024-01-27T00:11:40;6.17;;;2.33;;
55350;SDS011;62194;49.480;10.986;2024-01-27T00:11:45;6.57;;;2.42;;
55350;SDS011;62194;49.480;10.986;2024-01-27T00:11:50;6.40;;;2.40;;
55350;SDS011;62194;49.480;10.986;2024-01-27T00:11:56;5.43;;;2.38;;
55350;SDS011;62194;49.480;10.986;2024-01-27T00:12:01;4.70;;;2.30;;
55350;SDS011;62194;49.480;10.986;2024-01-27T00:12:06;4.43;;;2.10;;
55350;SDS011;62194;49.480;10.986;2024-01-27T00:12:12;4.25;;;2.00;;
55350;SDS011;62194;49.480;10.986;2024-01-27T00:12:17;3.93;;;1.90;;
55350;SDS011;62194;49.480;10.986;2024-01-27T00:12:23;4.15;;;1.90;;
55350;SDS011;62194;49.480;10.986;2024-01-27T00:12:28;4.63;;;1.90;;
55350;SDS011;62194;49.480;10.986;2024-01-27T00:12:34;5.43;;;1.90;;
55350;SDS011;62194;49.480;10.986;2024-01-27T00:12:39;6.18;;;2.00;;
55350;SDS011;62194;49.480;10.986;2024-01-27T00:12:45;6.20;;;2.05;;
55350;SDS011;62194;49.480;10.986;2024-01-27T00:12:50;6.63;;;2.20;;
55350;SDS011;62194;49.480;10.986;2024-01-27T00:12:55;7.17;;;2.30;;
55350;SDS011;62194;49.480;10.986;2024-01-27T00:13:01;6.82;;;2.30;;
55350;SDS011;62194;49.480;10.986;2024-01-27T00:13:06;5.73;;;2.27;;
55350;SDS011;62194;49.480;10.986;2024-01-27T00:13:11;5.47;;;2.37;;
55350;SDS011;62194;49.480;10.986;2024-01-27T00:13:17;5.45;;;2.65;;
55350;SDS011;62194;49.480;10.986;2024-01-27T00:13:22;5.03;;;2.60;;
55350;SDS011;62194;49.480;10.986;2024-01-27T00:13:27;6.03;;;2.70;;
55350;SDS011;62194;49.480;10.986;2024-01-27T00:13:32;5.97;;;2.73;;
55350;SDS011;62194;49.480;10.986;2024-01-27T00:13:38;5.95;;;2.70;;
55350;SDS011;62194;49.480;10.986;2024-01-27T00:13:44;6.23;;;2.43;;
55350;SDS011;62194;49.480;10.986;2024-01-27T00:13:50;6.03;;;2.27;;
55350;SDS011;62194;49.480;10.986;2024-01-27T00:13:55;6.60;;;2.30;;
55350;SDS011;62194;49.480;10.986;2024-01-27T00:14:00;5.47;;;2.10;;
55350;SDS011;62194;49.480;10.986;2024-01-27T00:14:06;6.28;;;2.10;;
55350;SDS011;62194;49.480;10.986;2024-01-27T00:14:11;6.17;;;2.23;;
55350;SDS011;62194;49.480;10.986;2024-01-27T00:14:16;6.57;;;2.20;;
55350;SDS011;62194;49.480;10.986;2024-01-27T00:14:21;6.20;;;2.15;;
55350;SDS011;62194;49.480;10.986;2024-01-27T00:14:27;5.87;;;2.20;;
55350;SDS011;62194;49.480;10.986;2024-01-27T00:14:32;7.00;;;2.30;;
55350;SDS011;62194;49.480;10.986;2024-01-27T00:14:39;6.63;;;2.08;;
55350;SDS011;62194;49.480;10.986;2024-01-27T00:14:44;6.33;;;2.13;;
55350;SDS011;62194;49.480;10.986;2024-01-27T00:14:49;6.05;;;2.10;;
55350;SDS011;62194;49.480;10.986;2024-01-27T00:14:55;6.57;;;2.03;;
55350;SDS011;62194;49.480;10.986;2024-01-27T00:15:00;6.90;;;2.10;;
55350;SDS011;62194;49.480;10.986;2024-01-27T00:15:06;6.63;;;2.20;;
55350;SDS011;62194;49.480;10.986;2024-01-27T00:15:13;6.70;;;2.20;;
55350;SDS011;62194;49.480;10.986;2024-01-27T00:15:18;6.97;;;2.30;;
55350;SDS011;62194;49.480;10.986;2024-01-27T00:15:23;6.75;;;2.45;;
55350;SDS011;62194;49.480;10.986;2024-01-27T00:15:29;5.97;;;2.40;;
55350;SDS011;62194;49.480;10.986;2024-01-27T00:15:34;5.93;;;2.40;;
55350;SDS011;62194;49.480;10.986;2024-01-27T00:15:39;5.85;;;2.45;;
55350;SDS011;62194;49.480;10.986;2024-01-27T00:15:45;7.13;;;2.63;;
55350;SDS011;62194;49.480;10.986;2024-01-27T00:15:50;7.00;;;2.50;;
55350;SDS011;62194;49.480;10.986;2024-01-27T00:15:56;7.52;;;2.44;;
55350;SDS011;62194;49.480;10.986;2024-01-27T00:16:02;7.07;;;2.37;;
55350;SDS011;62194;49.480;10.986;2024-01-27T00:16:08;7.30;;;2.30;;
55350;SDS011;62194;49.480;10.986;2024-01-27T00:16:14;6.82;;;2.10;;
55350;SDS011;62194;49.480;10.986;2024-01-27T00:16:19;6.65;;;2.13;;
55350;SDS011;62194;49.480;10.986;2024-01-27T00:16:24;7.17;;;2.33;;
55350;SDS011;62194;49.480;10.986;2024-01-27T00:16:30;7.93;;;2.47;;
55350;SDS011;62194;49.480;10.986;2024-01-27T00:16:35;8.35;;;2.60;;
55350;SDS011;62194;49.480;10.986;2024-01-27T00:16:40;7.43;;;2.57;;
55350;SDS011;62194;49.480;10.986;2024-01-27T00:16:46;6.70;;;2.50;;
55350;SDS011;62194;49.480;10.986;2024-01-27T00:16:51;6.40;;;2.33;;
55350;SDS011;62194;49.480;10.986;2024-01-27T00:16:56;5.67;;;2.07;;
55350;SDS011;62194;49.480;10.986;2024-01-27T00:17:02;5.77;;;1.90;;
55350;SDS011;62194;49.480;10.986;2024-01-27T00:17:07;6.20;;;1.90;;
55350;SDS011;62194;49.480;10.986;2024-01-27T00:17:12;7.13;;;2.00;;
55350;SDS011;62194;49.480;10.986;2024-01-27T00:17:18;7.17;;;2.10;;
55350;SDS011;62194;49.480;10.986;2024-01-27T00:17:28;7.17;;;2.23;;
55350;SDS011;62194;49.480;10.986;2024-01-27T00:17:34;7.03;;;2.23;;
55350;SDS011;62194;49.480;10.986;2024-01-27T00:17:40;5.98;;;2.22;;
55350;SDS011;62194;49.480;10.986;2024-01-27T00:17:46;6.30;;;2.30;;
55350;SDS011;62194;49.480;10.986;2024-01-27T00:17:51;7.00;;;2.30;;
55350;SDS011;62194;49.480;10.986;2024-01-27T00:17:56;6.37;;;2.03;;
55350;SDS011;62194;49.480;10.986;2024-01-27T00:18:02;6.30;;;2.00;;
55350;SDS011;62194;49.480;10.986;2024-01-27T00:18:07;7.25;;;2.08;;
55350;SDS011;62194;49.480;10.986;2024-01-27T00:18:12;7.30;;;1.93;;
55350;SDS011;62194;49.480;10.986;2024-01-27T00:18:18;6.90;;;2.00;;
55350;SDS011;62194;49.480;10.986;2024-01-27T00:18:23;6.82;;;2.13;;
55350;SDS011;62194;49.480;10.986;2024-01-27T00:18:28;6.67;;;2.37;;
55350;SDS011;62194;49.480;10.986;2024-01-27T00:18:35;7.50;;;2.70;;
55350;SDS011;62194;49.480;10.986;2024-01-27T00:18:41;6.70;;;2.64;;
55350;SDS011;62194;49.480;10.986;2024-01-27T00:18:46;6.68;;;2.60;;
55350;SDS011;62194;49.480;10.986;2024-01-27T00:18:51;6.03;;;2.47;;
55350;SDS011;62194;49.480;10.986;2024-01-27T00:18:56;5.83;;;2.30;;
55350;SDS011;62194;49.480;10.986;2024-01-27T00:19:02;4.90;;;1.80;;
55350;SDS011;62194;49.480;10.986;2024-01-27T00:19:07;4.32;;;1.85;;
55350;SDS011;62194;49.480;10.986;2024-01-27T00:19:12;4.70;;;2.00;;
55350;SDS011;62194;49.480;10.986;2024-01-27T00:19:17;4.50;;;2.00;;
55350;SDS011;62194;49.480;10.986;2024-01-27T00:19:23;5.60;;;2.20;;
55350;SDS011;62194;49.480;10.986;2024-01-27T00:19:28;5.87;;;2.30;;
55350;SDS011;62194;49.480;10.986;2024-01-27T00:19:34;6.20;;;2.40;;
55350;SDS011;62194;49.480;10.986;2024-01-27T00:19:39;6.33;;;2.30;;
55350;SDS011;62194;49.480;10.986;2024-01-27T00:19:44;6.47;;;2.30;;
55350;SDS011;62194;49.480;10.986;2024-01-27T00:19:50;6.23;;;2.23;;
55350;SDS011;62194;49.480;10.986;2024-01-27T00:19:55;5.78;;;2.08;;
55350;SDS011;62194;49.480;10.986;2024-01-27T00:20:00;6.70;;;2.20;;
55350;SDS011;62194;49.480;10.986;2024-01-27T00:20:06;6.97;;;2.20;;
55350;SDS011;62194;49.480;10.986;2024-01-27T00:20:11;7.07;;;2.30;;
55350;SDS011;62194;49.480;10.986;2024-01-27T00:20:17;7.10;;;2.30;;
55350;SDS011;62194;49.480;10.986;2024-01-27T00:20:22;7.57;;;2.33;;
55350;SDS011;62194;49.480;10.986;2024-01-27T00:20:28;6.63;;;2.20;;
55350;SDS011;62194;49.480;10.986;2024-01-27T00:20:33;7.00;;;2.20;;
55350;SDS011;62194;49.480;10.986;2024-01-27T00:20:39;6.53;;;2.15;;
55350;SDS011;62194;49.480;10.986;2024-01-27T00:20:45;6.97;;;2.10;;
55350;SDS011;62194;49.480;10.986;2024-01-27T00:20:50;7.43;;;2.25;;
55350;SDS011;62194;49.480;10.986;2024-01-27T00:20:56;8.10;;;2.30;;
55350;SDS011;62194;49.480;10.986;2024-01-27T00:21:01;7.33;;;2.20;;
55350;SDS011;62194;49.480;10.986;2024-01-27T00:21:07;7.63;;;2.20;;
55350;SDS011;62194;49.480;10.986;2024-01-27T00:21:12;7.90;;;2.20;;
55350;SDS011;62194;49.480;10.986;2024-01-27T00:21:18;6.97;;;2.07;;
55350;SDS011;62194;49.480;10.986;2024-01-27T00:21:23;6.83;;;2.13;;
55350;SDS011;62194;49.480;10.986;2024-01-27T00:21:28;7.13;;;2.27;;
55350;SDS011;62194;49.480;10.986;2024-01-27T00:21:34;7.97;;;2.30;;
55350;SDS011;62194;49.480;10.986;2024-01-27T00:21:39;8.50;;;2.40;;
55350;SDS011;62194;49.480;10.986;2024-01-27T00:21:45;8.57;;;2.58;;
55350;SDS011;62194;49.480;10.986;2024-01-27T00:21:50;8.97;;;2.70;;
55350;SDS011;62194;49.480;10.986;2024-01-27T00:21:55;8.52;;;2.50;;
55350;SDS011;62194;49.480;10.986;2024-01-27T00:22:01;7.63;;;2.57;;
55350;SDS011;62194;49.480;10.986;2024-01-27T00:22:07;6.77;;;2.50;;
55350;SDS011;62194;49.480;10.986;2024-01-27T00:22:13;6.97;;;2.42;;
55350;SDS011;62194;49.480;10.986;2024-01-27T00:22:18;7.20;;;2.37;;
55350;SDS011;62194;49.480;10.986;2024-01-27T00:22:25;7.30;;;2.32;;
55350;SDS011;62194;49.480;10.986;2024-01-27T00:22:30;7.10;;;2.37;;
55350;SDS011;62194;49.480;10.986;2024-01-27T00:22:36;7.53;;;2.47;;
55350;SDS011;62194;49.480;10.986;2024-01-27T00:22:41;7.75;;;2.45;;
55350;SDS011;62194;49.480;10.986;2024-01-27T00:22:46;7.80;;;2.40;;
55350;SDS011;62194;49.480;10.986;2024-01-27T00:22:52;7.80;;;2.40;;
55350;SDS011;62194;49.480;10.986;2024-01-27T00:22:57;7.37;;;2.33;;
55350;SDS011;62194;49.480;10.986;2024-01-27T00:23:02;7.32;;;2.28;;
55350;SDS011;62194;49.480;10.986;2024-01-27T00:23:08;6.63;;;2.10;;
55350;SDS011;62194;49.480;10.986;2024-01-27T00:23:13;6.15;;;2.10;;
55350;SDS011;62194;49.480;10.986;2024-01-27T00:23:18;6.00;;;2.07;;
55350;SDS011;62194;49.480;10.986;2024-01-27T00:23:24;5.93;;;2.03;;
55350;SDS011;62194;49.480;10.986;2024-01-27T00:23:29;6.07;;;2.13;;
55350;SDS011;62194;49.480;10.986;2024-01-27T00:23:34;5.90;;;2.10;;
55350;SDS011;62194;49.480;10.986;2024-01-27T00:23:40;7.07;;;2.20;;
55350;SDS011;62194;49.480;10.986;2024-01-27T00:23:46;7.90;;;2.40;;
55350;SDS011;62194;49.480;10.986;2024-01-27T00:23:51;7.28;;;2.42;;
55350;SDS011;62194;49.480;10.986;2024-01-27T00:23:57;7.70;;;2.40;;
55350;SDS011;62194;49.480;10.986;2024-01-27T00:24:05;8.69;;;2.34;;
55350;SDS011;62194;49.480;10.986;2024-01-27T00:24:12;7.40;;;2.15;;
55350;SDS011;62194;49.480;10.986;2024-01-27T00:24:18;6.78;;;1.90;;
55350;SDS011;62194;49.480;10.986;2024-01-27T00:24:23;7.13;;;1.90;;
55350;SDS011;62194;49.480;10.986;2024-01-27T00:24:29;8.07;;;2.03;;
55350;SDS011;62194;49.480;10.986;2024-01-27T00:24:34;7.65;;;2.30;;
55350;SDS011;62194;49.480;10.986;2024-01-27T00:24:39;7.07;;;2.30;;
55350;SDS011;62194;49.480;10.986;2024-01-27T00:24:45;7.00;;;2.43;;
55350;SDS011;62194;49.480;10.986;2024-01-27T00:24:50;8.10;;;2.53;;
55350;SDS011;62194;49.480;10.986;2024-01-27T00:24:56;7.27;;;2.57;;
55350;SDS011;62194;49.480;10.986;2024-01-27T00:25:01;5.25;;;2.13;;
55350;SDS011;62194;49.480;10.986;2024-01-27T00:25:06;5.80;;;2.23;;
55350;SDS011;62194;49.480;10.986;2024-01-27T00:25:11;6.07;;;2.30;;
55350;SDS011;62194;49.480;10.986;2024-01-27T00:25:17;5.80;;;2.33;;
55350;SDS011;62194;49.480;10.986;2024-01-27T00:25:22;5.90;;;2.20;;
55350;SDS011;62194;49.480;10.986;2024-01-27T00:25:27;5.93;;;2.20;;
55350;SDS011;62194;49.480;10.986;2024-01-27T00:25:33;6.35;;;2.20;;
55350;SDS011;62194;49.480;10.986;2024-01-27T00:25:38;6.60;;;2.27;;
55350;SDS011;62194;49.480;10.986;2024-01-27T00:25:43;7.90;;;2.37;;
55350;SDS011;62194;49.480;10.986;2024-01-27T00:25:49;7.22;;;2.30;;
55350;SDS011;62194;49.480;10.986;2024-01-27T00:25:54;7.17;;;2.37;;
55350;SDS011;62194;49.480;10.986;2024-01-27T00:26:00;7.97;;;2.53;;
55350;SDS011;62194;49.480;10.986;2024-01-27T00:26:06;7.93;;;2.50;;
55350;SDS011;62194;49.480;10.986;2024-01-27T00:26:11;6.67;;;2.40;;
55350;SDS011;62194;49.480;10.986;2024-01-27T00:26:16;6.67;;;2.33;;
55350;SDS011;62194;49.480;10.986;2024-01-27T00:26:22;6.53;;;2.30;;
55350;SDS011;62194;49.480;10.986;2024-01-27T00:26:27;6.97;;;2.40;;
55350;SDS011;62194;49.480;10.986;2024-01-27T00:26:33;6.57;;;2.28;;
55350;SDS011;62194;49.480;10.986;2024-01-27T00:26:38;7.00;;;2.33;;
55350;SDS011;62194;49.480;10.986;2024-01-27T00:26:43;7.33;;;2.40;;
55350;SDS011;62194;49.480;10.986;2024-01-27T00:26:49;7.53;;;2.42;;
55350;SDS011;62194;49.480;10.986;2024-01-27T00:26:54;6.97;;;2.33;;
55350;SDS011;62194;49.480;10.986;2024-01-27T00:27:00;5.93;;;2.27;;
55350;SDS011;62194;49.480;10.986;2024-01-27T00:27:05;5.30;;;2.17;;
55350;SDS011;62194;49.480;10.986;2024-01-27T00:27:10;5.50;;;2.17;;
55350;SDS011;62194;49.480;10.986;2024-01-27T00:27:16;5.27;;;2.20;;
55350;SDS011;62194;49.480;10.986;2024-01-27T00:27:21;5.47;;;2.10;;
55350;SDS011;62194;49.480;10.986;2024-01-27T00:27:26;6.00;;;2.17;;
55350;SDS011;62194;49.480;10.986;2024-01-27T00:27:32;6.45;;;2.50;;
55350;SDS011;62194;49.480;10.986;2024-01-27T00:27:37;6.35;;;2.50;;
55350;SDS011;62194;49.480;10.986;2024-01-27T00:27:43;6.27;;;2.30;;
55350;SDS011;62194;49.480;10.986;2024-01-27T00:27:48;6.67;;;2.30;;
55350;SDS011;62194;49.480;10.986;2024-01-27T00:27:53;6.95;;;2.50;;
55350;SDS011;62194;49.480;10.986;2024-01-27T00:27:58;6.50;;;2.37;;
55350;SDS011;62194;49.480;10.986;2024-01-27T00:28:04;6.27;;;2.20;;
55350;SDS011;62194;49.480;10.986;2024-01-27T00:28:09;5.97;;;2.10;;
55350;SDS011;62194;49.480;10.986;2024-01-27T00:28:14;6.20;;;2.10;;
55350;SDS011;62194;49.480;10.986;2024-01-27T00:28:20;5.23;;;2.07;;
55350;SDS011;62194;49.480;10.986;2024-01-27T00:28:25;5.70;;;1.98;;
55350;SDS011;62194;49.480;10.986;2024-01-27T00:28:31;6.53;;;2.13;;
55350;SDS011;62194;49.480;10.986;2024-01-27T00:28:36;6.90;;;2.17;;
55350;SDS011;62194;49.480;10.986;2024-01-27T00:28:41;6.90;;;2.22;;
55350;SDS011;62194;49.480;10.986;2024-01-27T00:28:47;7.20;;;2.30;;
55350;SDS011;62194;49.480;10.986;2024-01-27T00:28:52;7.47;;;2.43;;
55350;SDS011;62194;49.480;10.986;2024-01-27T00:28:57;7.78;;;2.40;;
55350;SDS011;62194;49.480;10.986;2024-01-27T00:29:02;8.33;;;2.40;;
55350;SDS011;62194;49.480;10.986;2024-01-27T00:29:08;8.82;;;2.58;;
55350;SDS011;62194;49.480;10.986;2024-01-27T00:29:14;10.33;;;2.60;;
55350;SDS011;62194;49.480;10.986;2024-01-27T00:29:19;9.75;;;2.70;;
55350;SDS011;62194;49.480;10.986;2024-01-27T00:29:25;9.20;;;2.58;;
55350;SDS011;62194;49.480;10.986;2024-01-27T00:29:30;8.33;;;2.50;;
55350;SDS011;62194;49.480;10.986;2024-01-27T00:29:36;7.93;;;2.37;;
55350;SDS011;62194;49.480;10.986;2024-01-27T00:29:41;6.63;;;2.20;;
55350;SDS011;62194;49.480;10.986;2024-01-27T00:29:46;6.05;;;2.10;;
55350;SDS011;62194;49.480;10.986;2024-01-27T00:29:51;6.00;;;2.07;;
55350;SDS011;62194;49.480;10.986;2024-01-27T00:29:57;5.87;;;2.00;;
55350;SDS011;62194;49.480;10.986;2024-01-27T00:30:02;6.00;;;2.15;;
55350;SDS011;62194;49.480;10.986;2024-01-27T00:30:08;6.50;;;2.17;;
55350;SDS011;62194;49.480;10.986;2024-01-27T00:30:13;6.30;;;2.28;;
55350;SDS011;62194;49.480;10.986;2024-01-27T00:30:18;6.60;;;2.27;;
55350;SDS011;62194;49.480;10.986;2024-01-27T00:30:24;5.93;;;2.30;;
55350;SDS011;62194;49.480;10.986;2024-01-27T00:30:29;5.65;;;2.22;;
55350;SDS011;62194;49.480;10.986;2024-01-27T00:30:34;5.13;;;2.20;;
55350;SDS011;62194;49.480;10.986;2024-01-27T00:30:39;5.67;;;2.20;;
55350;SDS011;62194;49.480;10.986;2024-01-27T00:30:45;5.53;;;2.22;;
55350;SDS011;62194;49.480;10.986;2024-01-27T00:30:51;5.95;;;2.47;;
55350;SDS011;62194;49.480;10.986;2024-01-27T00:30:56;5.73;;;2.50;;
55350;SDS011;62194;49.480;10.986;2024-01-27T00:31:02;5.93;;;2.47;;
55350;SDS011;62194;49.480;10.986;2024-01-27T00:31:07;5.95;;;2.50;;
55350;SDS011;62194;49.480;10.986;2024-01-27T00:31:12;6.20;;;2.50;;
55350;SDS011;62194;49.480;10.986;2024-01-27T00:31:18;6.43;;;2.30;;
55350;SDS011;62194;49.480;10.986;2024-01-27T00:31:23;6.45;;;2.20;;
55350;SDS011;62194;49.480;10.986;2024-01-27T00:31:28;7.40;;;2.20;;
55350;SDS011;62194;49.480;10.986;2024-01-27T00:31:33;8.03;;;2.33;;
55350;SDS011;62194;49.480;10.986;2024-01-27T00:31:39;7.80;;;2.45;;
55350;SDS011;62194;49.480;10.986;2024-01-27T00:31:44;7.57;;;2.50;;
55350;SDS011;62194;49.480;10.986;2024-01-27T00:31:49;7.93;;;2.60;;
55350;SDS011;62194;49.480;10.986;2024-01-27T00:31:55;7.68;;;2.60;;
55350;SDS011;62194;49.480;10.986;2024-01-27T00:32:01;6.93;;;2.50;;
55350;SDS011;62194;49.480;10.986;2024-01-27T00:32:06;6.27;;;2.37;;
55350;SDS011;62194;49.480;10.986;2024-01-27T00:32:11;7.10;;;2.30;;
55350;SDS011;62194;49.480;10.986;2024-01-27T00:32:17;7.53;;;2.25;;
55350;SDS011;62194;49.480;10.986;2024-01-27T00:32:22;7.80;;;2.20;;